VA7RO Saanichton CA current weather conditions

sailwx.info

Wind from 022 at 0 knots gusting 2

Air temperature 15.0° C
Dewpoint 13.7° C

Last reported at 2019-Aug-22 04:02 UTC.
Time now 2019-Aug-22 04:32 UTC

Location: N 48°34' W 123°23'.
View on Google Maps.

See reports from other nearby stations

  
Tides and Currents Weather Stations Pressure Air Temp Water Temp Dewpoint Dewpoint Depression Visibility Wind Speed Wind Dir Waves Ship Positions
date/time (UTC)wind fromknots sea level pressurealtimeterstation pressurevisibilityair tempwater tempwave heightnotes
2019-Aug-22 04:02 022 0 gusting 2 15.0
2019-Aug-22 03:46 288 0 gusting 4 14.4
2019-Aug-22 03:31 300 1 gusting 4 14.4
2019-Aug-22 03:16 315 0 gusting 3 15.0
2019-Aug-22 03:02 046 1 gusting 4 15.0
2019-Aug-22 02:47 317 1 gusting 4 15.6
2019-Aug-22 02:32 013 1 gusting 3 16.1
2019-Aug-22 02:17 296 0 gusting 2 15.6
2019-Aug-22 02:02 044 0 gusting 4 14.4
2019-Aug-22 01:46 036 3 gusting 5 14.4
2019-Aug-22 01:32 060 5 gusting 6 14.4
2019-Aug-22 01:16 112 4 gusting 6 14.4
2019-Aug-22 01:02 107 6 gusting 8 13.9
2019-Aug-22 00:47 083 5 gusting 7 14.4
2019-Aug-22 00:32 107 4 gusting 7 15.6
2019-Aug-22 00:17 107 6 gusting 8 15.0
2019-Aug-22 00:02 109 6 gusting 8 14.4
2019-Aug-21 23:47 118 6 gusting 8 15.0
2019-Aug-21 23:32 109 5 gusting 7 15.0
2019-Aug-21 23:17 127 6 gusting 9 15.6
2019-Aug-21 23:02 102 5 gusting 7 16.1
2019-Aug-21 22:47 123 7 gusting 11 15.6
2019-Aug-21 22:32 109 5 gusting 7 16.1
2019-Aug-21 22:17 134 4 gusting 10 16.1
2019-Aug-21 22:02 126 6 gusting 13 15.6
2019-Aug-21 21:47 135 6 gusting 13 15.6
2019-Aug-21 21:32 122 6 gusting 9 15.6
2019-Aug-21 21:17 130 6 gusting 8 16.1
2019-Aug-21 21:02 164 6 gusting 10 15.6
2019-Aug-21 20:47 129 5 gusting 9 15.6
2019-Aug-21 20:32 168 5 gusting 9 15.6
2019-Aug-21 20:17 154 5 gusting 9 15.0
2019-Aug-21 20:02 113 6 gusting 10 15.0
2019-Aug-21 19:47 150 5 gusting 9 15.0
2019-Aug-21 19:32 103 6 gusting 9 15.0
2019-Aug-21 19:17 121 6 gusting 10 15.0
2019-Aug-21 19:02 120 3 gusting 8 15.0
2019-Aug-21 18:47 111 5 gusting 7 15.0
2019-Aug-21 18:31 167 3 gusting 7 15.6
2019-Aug-21 18:17 146 2 gusting 5 15.0
2019-Aug-21 18:02 178 1 gusting 3 15.0
2019-Aug-21 17:46 169 1 gusting 6 15.0
2019-Aug-21 17:32 124 3 gusting 8 15.0
2019-Aug-21 17:16 124 3 gusting 6 14.4
2019-Aug-21 17:02 109 5 gusting 6 14.4
2019-Aug-21 16:47 128 4 gusting 9 14.4
2019-Aug-21 16:32 119 2 gusting 4 14.4
2019-Aug-21 16:17 102 2 gusting 5 13.9
2019-Aug-21 16:02 069 4 gusting 7 13.9
2019-Aug-21 15:47 122 2 gusting 7 14.4
2019-Aug-21 15:32 161 4 gusting 8 14.4
2019-Aug-21 15:17 180 0 gusting 2 14.4
2019-Aug-21 15:02 168 1 gusting 5 14.4
2019-Aug-21 14:47 138 3 gusting 6 14.4
2019-Aug-21 14:32 130 1 gusting 3 14.4
2019-Aug-21 14:17 296 0 gusting 3 14.4
2019-Aug-21 14:02 302 1 gusting 3 14.4
2019-Aug-21 13:47 039 0 gusting 1 14.4
2019-Aug-21 13:32 024 0 gusting 1 14.4
2019-Aug-21 13:17 039 0 gusting 4 14.4
2019-Aug-21 13:01 360 0 gusting 2 14.4
2019-Aug-21 12:47 028 0 gusting 2 13.9
2019-Aug-21 12:32 037 0 gusting 2 13.9
2019-Aug-21 12:17 349 1 gusting 2 14.4
2019-Aug-21 12:02 328 0 gusting 3 14.4
2019-Aug-21 11:47 316 3 gusting 4 14.4
2019-Aug-21 11:32 305 3 gusting 4 14.4
2019-Aug-21 11:17 310 2 gusting 3 14.4
2019-Aug-21 11:02 305 2 gusting 3 13.9
2019-Aug-21 10:46 297 3 gusting 4 13.9
2019-Aug-21 10:32 290 2 gusting 2 13.9
2019-Aug-21 10:17 168 0 gusting 2 13.9
2019-Aug-21 10:02 238 0 gusting 2 13.9
2019-Aug-21 09:47 178 0 gusting 2 13.9
2019-Aug-21 09:36 176 0 gusting 2 13.9
2019-Aug-21 09:21 133 0 gusting 3 13.9
2019-Aug-21 09:01 107 1 gusting 4 13.9
2019-Aug-21 08:47 173 2 gusting 5 13.9
2019-Aug-21 08:32 102 6 gusting 6 13.3
2019-Aug-21 07:02 131 3 gusting 6 15.6
2019-Aug-21 06:47 190 1 gusting 5 16.1
2019-Aug-21 06:31 138 3 gusting 5 16.7
2019-Aug-21 06:17 173 1 gusting 2 17.2
2019-Aug-21 06:01 178 1 gusting 3 16.7
2019-Aug-21 05:47 183 3 gusting 3 16.7
2019-Aug-21 05:32 227 1 gusting 1 17.2
2019-Aug-21 05:16 313 17.8
2019-Aug-21 05:01 311 1 gusting 3 18.3
2019-Aug-21 04:47 313 1 gusting 2 18.3
2019-Aug-21 04:32 020 1 gusting 3 18.3
2019-Aug-21 04:17 266 0 gusting 3 18.9
2019-Aug-21 04:01 329 3 gusting 4 16.7
2019-Aug-21 03:47 050 2 gusting 3 16.1
2019-Aug-21 03:31 311 0 gusting 2 16.1
2019-Aug-21 03:17 050 2 gusting 3 15.6
2019-Aug-21 03:02 055 0 gusting 3 16.1
2019-Aug-21 02:47 063 2 gusting 3 16.7
2019-Aug-21 02:32 064 2 gusting 5 16.1
2019-Aug-21 02:17 042 3 gusting 4 18.3
2019-Aug-21 02:02 106 2 gusting 4 20.0
2019-Aug-21 01:47 111 2 gusting 3 21.7
2019-Aug-21 01:31 157 1 gusting 4 21.7
2019-Aug-21 01:17 187 1 gusting 6 21.7
2019-Aug-21 01:02 198 1 gusting 6 21.7
2019-Aug-21 00:47 175 3 gusting 6 21.7
2019-Aug-21 00:32 137 3 gusting 6 21.7
2019-Aug-21 00:17 149 2 gusting 4 21.7
2019-Aug-21 00:02 149 1 gusting 4 21.1
2019-Aug-20 23:47 118 3 gusting 6 20.0
2019-Aug-20 23:32 111 4 gusting 6 19.4
2019-Aug-20 23:17 121 6 gusting 7 18.9
2019-Aug-20 23:02 117 4 gusting 6 19.4
2019-Aug-20 22:47 105 4 gusting 7 20.0
2019-Aug-20 22:32 115 5 gusting 6 20.0
2019-Aug-20 22:17 153 4 gusting 6 19.4
2019-Aug-20 22:02 106 4 gusting 6 18.9
2019-Aug-20 21:47 107 4 gusting 6 17.8
2019-Aug-20 21:32 114 6 gusting 8 17.2
2019-Aug-20 21:16 113 6 gusting 8 17.2
2019-Aug-20 21:02 101 6 gusting 7 17.8
2019-Aug-20 20:47 112 6 gusting 8 18.3
2019-Aug-20 20:32 117 6 gusting 9 18.3
2019-Aug-20 20:17 115 7 gusting 9 17.2
2019-Aug-20 20:02 111 7 gusting 9 16.7
2019-Aug-20 19:47 100 6 gusting 7 16.7
2019-Aug-20 19:32 103 5 gusting 7 16.7
2019-Aug-20 19:17 132 5 gusting 6 17.8
2019-Aug-20 19:01 127 3 gusting 6 17.8
2019-Aug-20 18:46 101 4 gusting 6 17.8
2019-Aug-20 18:31 109 5 gusting 6 17.8
2019-Aug-20 18:17 104 6 gusting 7 17.8
2019-Aug-20 18:01 101 4 gusting 6 17.2
2019-Aug-20 17:46 088 2 gusting 5 16.7
2019-Aug-20 17:32 073 3 gusting 4 17.2
2019-Aug-20 17:17 102 3 gusting 6 16.7
2019-Aug-20 17:01 081 2 gusting 5 16.7
2019-Aug-20 16:46 086 3 gusting 5 17.2
2019-Aug-20 16:31 065 1 gusting 2 17.2
2019-Aug-20 16:17 109 1 gusting 3 16.1
2019-Aug-20 16:02 084 1 gusting 3 15.0
2019-Aug-20 15:47 084 1 gusting 3 15.0
2019-Aug-20 15:32 056 1 gusting 2 15.0
2019-Aug-20 15:17 315 0 gusting 1 15.0
2019-Aug-20 15:02 315 1 gusting 2 14.4
2019-Aug-20 14:47 315 1 gusting 2 13.9
2019-Aug-20 14:32 290 2 gusting 4 13.3
2019-Aug-20 14:17 300 2 gusting 3 13.3
2019-Aug-20 14:02 301 1 gusting 2 13.3
2019-Aug-20 13:47 301 0 gusting 1 13.3
2019-Aug-20 13:32 301 13.3
2019-Aug-20 13:17 301 13.3
2019-Aug-20 13:01 301 0 gusting 1 13.3
2019-Aug-20 12:47 301 0 gusting 2 13.3
2019-Aug-20 12:31 296 1 gusting 2 13.3
2019-Aug-20 12:16 302 1 gusting 2 13.3
2019-Aug-20 12:03 302 2 gusting 3 13.3
2019-Aug-20 11:47 281 1 gusting 2 13.3
2019-Aug-20 11:32 276 1 gusting 2 12.8
2019-Aug-20 11:17 275 1 gusting 2 12.8
2019-Aug-20 11:02 040 0 gusting 1 13.3
2019-Aug-20 10:47 036 1 gusting 2 13.9
2019-Aug-20 10:32 292 1 gusting 3 13.9
2019-Aug-20 10:17 272 2 gusting 3 13.9
2019-Aug-20 10:02 291 1 gusting 3 13.9
2019-Aug-20 09:47 298 2 gusting 3 13.9
2019-Aug-20 09:32 300 1 gusting 3 13.3
2019-Aug-20 09:20 294 1 gusting 2 13.3
2019-Aug-20 09:02 288 1 gusting 2 13.9
2019-Aug-20 08:47 295 1 gusting 2 13.3
2019-Aug-20 08:32 355 14.4
2019-Aug-20 08:17 295 14.4
2019-Aug-20 07:02 100 14.4
2019-Aug-20 06:46 100 0 gusting 2 14.4
2019-Aug-20 06:31 123 1 gusting 2 15.0
2019-Aug-20 06:17 118 15.6
2019-Aug-20 06:02 117 15.6
2019-Aug-20 05:47 117 16.1
2019-Aug-20 05:32 117 16.1
2019-Aug-20 05:17 121 1 gusting 6 16.1
2019-Aug-20 05:02 073 1 gusting 2 16.7
2019-Aug-20 04:47 078 2 gusting 4 17.8
2019-Aug-20 04:32 276 2 gusting 3 17.8
2019-Aug-20 04:17 282 2 gusting 4 17.8
2019-Aug-20 04:02 252 1 gusting 2 18.3